Time;durP1;ratioP1;P1;durP2;ratioP2;P2;SDS_P1;SDS_P2;PMS_P1;PMS_P2;Temp;Humidity;BMP_temperature;BMP_pressure;BME280_temperature;BME280_humidity;BME280_pressure;Samples;Min_cycle;Max_cycle;Signal;HPM_P1;HPM_P2
2023/06/06 00:00:31;;;;;;;18.70;12.40;;;;;;;-128.00;-1.00;-1.00;105647;1256;1004530;-78
2023/06/06 00:03:20;;;;;;;18.50;11.20;;;;;;;-128.00;-1.00;-1.00;105591;1257;1045845;-80
2023/06/06 00:05:48;;;;;;;20.30;12.10;;;;;;;-128.00;-1.00;-1.00;105567;1253;1046083;-78
2023/06/06 00:08:14;;;;;;;20.50;13.20;;;;;;;-128.00;-1.00;-1.00;105701;1253;1004576;-80
2023/06/06 00:10:41;;;;;;;19.20;12.70;;;;;;;-128.00;-1.00;-1.00;105695;1254;1004156;-80
2023/06/06 00:13:07;;;;;;;20.80;12.50;;;;;;;-128.00;-1.00;-1.00;105499;1252;1004773;-80
2023/06/06 00:15:34;;;;;;;18.70;12.60;;;;;;;-128.00;-1.00;-1.00;105520;1254;1003789;-78
2023/06/06 00:18:02;;;;;;;20.50;13.40;;;;;;;-128.00;-1.00;-1.00;105512;1254;1004498;-77
2023/06/06 00:20:32;;;;;;;18.90;12.30;;;;;;;-128.00;-1.00;-1.00;105491;1253;1004112;-78
2023/06/06 00:22:59;;;;;;;18.80;12.70;;;;;;;-128.00;-1.00;-1.00;105421;1253;1058639;-78
2023/06/06 00:25:25;;;;;;;19.30;11.60;;;;;;;-128.00;-1.00;-1.00;105456;1254;1004054;-78
2023/06/06 00:27:52;;;;;;;20.40;11.90;;;;;;;-128.00;-1.00;-1.00;105513;1253;1004106;-78
2023/06/06 00:30:18;;;;;;;20.40;12.70;;;;;;;-128.00;-1.00;-1.00;105485;1254;1004650;-78
2023/06/06 00:32:45;;;;;;;17.20;12.40;;;;;;;-128.00;-1.00;-1.00;105575;1251;1005185;-80
2023/06/06 00:35:11;;;;;;;17.40;12.80;;;;;;;-128.00;-1.00;-1.00;105565;1251;1003509;-78
2023/06/06 00:37:37;;;;;;;17.40;11.20;;;;;;;-128.00;-1.00;-1.00;105566;1251;1004076;-78
2023/06/06 00:40:06;;;;;;;19.20;11.90;;;;;;;-128.00;-1.00;-1.00;105558;1251;1004607;-78
2023/06/06 00:42:32;;;;;;;14.70;10.60;;;;;;;-128.00;-1.00;-1.00;105481;1253;1003577;-78
2023/06/06 00:44:58;;;;;;;21.10;11.90;;;;;;;-128.00;-1.00;-1.00;105560;1251;1005534;-82
2023/06/06 00:47:25;;;;;;;16.70;10.90;;;;;;;-128.00;-1.00;-1.00;105586;1251;1005021;-80
2023/06/06 00:49:51;;;;;;;15.20;10.50;;;;;;;-128.00;-1.00;-1.00;105328;1253;1004250;-80
2023/06/06 00:52:18;;;;;;;14.90;9.50;;;;;;;-128.00;-1.00;-1.00;105503;1254;1004447;-78
2023/06/06 00:54:45;;;;;;;15.10;10.30;;;;;;;-128.00;-1.00;-1.00;105528;1253;1004587;-78
2023/06/06 00:57:12;;;;;;;18.60;11.20;;;;;;;-128.00;-1.00;-1.00;105364;1254;1004347;-80
2023/06/06 00:59:39;;;;;;;15.20;11.20;;;;;;;-128.00;-1.00;-1.00;105517;1252;1004110;-81
2023/06/06 01:02:09;;;;;;;19.90;11.30;;;;;;;-128.00;-1.00;-1.00;105327;1253;1004425;-80
2023/06/06 01:04:43;;;;;;;15.50;10.00;;;;;;;-128.00;-1.00;-1.00;105473;1253;1047230;-79
2023/06/06 01:07:12;;;;;;;15.30;10.20;;;;;;;-128.00;-1.00;-1.00;105522;1253;1048338;-81
2023/06/06 01:09:39;;;;;;;14.60;10.40;;;;;;;-128.00;-1.00;-1.00;105521;1254;1062295;-78
2023/06/06 01:12:14;;;;;;;16.20;11.60;;;;;;;-128.00;-1.00;-1.00;105372;1252;1003854;-80
2023/06/06 01:14:43;;;;;;;16.20;10.20;;;;;;;-128.00;-1.00;-1.00;105497;1254;1059960;-80
2023/06/06 01:17:10;;;;;;;16.20;11.00;;;;;;;-128.00;-1.00;-1.00;105367;1252;1047025;-78
2023/06/06 01:19:41;;;;;;;16.80;10.40;;;;;;;-128.00;-1.00;-1.00;105373;1253;1003947;-81
2023/06/06 01:22:12;;;;;;;18.80;10.50;;;;;;;-128.00;-1.00;-1.00;105360;1254;1061250;-78
2023/06/06 01:24:38;;;;;;;17.70;10.20;;;;;;;-128.00;-1.00;-1.00;105476;1254;1057272;-78
2023/06/06 01:27:05;;;;;;;12.10;9.60;;;;;;;-128.00;-1.00;-1.00;105244;1253;1004262;-78
2023/06/06 01:29:31;;;;;;;13.30;9.60;;;;;;;-128.00;-1.00;-1.00;105378;1254;1004452;-78
2023/06/06 01:32:17;;;;;;;16.30;10.50;;;;;;;-128.00;-1.00;-1.00;105568;1251;1005024;-81
2023/06/06 01:35:12;;;;;;;15.30;11.10;;;;;;;-128.00;-1.00;-1.00;105538;1251;1062270;-80
2023/06/06 01:37:52;;;;;;;16.50;10.40;;;;;;;-128.00;-1.00;-1.00;105497;1251;1058986;-80
2023/06/06 01:40:19;;;;;;;14.80;9.70;;;;;;;-128.00;-1.00;-1.00;105742;1251;1059034;-80
2023/06/06 01:42:47;;;;;;;19.70;10.20;;;;;;;-128.00;-1.00;-1.00;105785;1251;1003963;-80
2023/06/06 01:45:16;;;;;;;14.30;9.20;;;;;;;-128.00;-1.00;-1.00;105739;1251;1004479;-78
2023/06/06 01:47:43;;;;;;;16.20;10.10;;;;;;;-128.00;-1.00;-1.00;105769;1251;1061270;-80
2023/06/06 01:50:10;;;;;;;15.30;10.60;;;;;;;-128.00;-1.00;-1.00;105701;1253;1004975;-78
2023/06/06 01:52:37;;;;;;;15.70;10.40;;;;;;;-128.00;-1.00;-1.00;105691;1253;1003863;-80
2023/06/06 01:55:05;;;;;;;15.20;10.00;;;;;;;-128.00;-1.00;-1.00;105713;1253;1005254;-79
2023/06/06 01:57:32;;;;;;;18.40;9.80;;;;;;;-128.00;-1.00;-1.00;105706;1253;1003787;-80
2023/06/06 01:59:58;;;;;;;13.00;9.20;;;;;;;-128.00;-1.00;-1.00;105524;1253;1005167;-77
2023/06/06 02:02:26;;;;;;;16.10;10.60;;;;;;;-128.00;-1.00;-1.00;105510;1253;1004422;-81
2023/06/06 02:04:52;;;;;;;17.90;10.20;;;;;;;-128.00;-1.00;-1.00;105536;1253;1005189;-78
2023/06/06 02:07:19;;;;;;;16.30;11.00;;;;;;;-128.00;-1.00;-1.00;105498;1253;1004045;-81
2023/06/06 02:09:45;;;;;;;17.80;9.70;;;;;;;-128.00;-1.00;-1.00;105506;1253;1004016;-78
2023/06/06 02:12:12;;;;;;;19.20;11.00;;;;;;;-128.00;-1.00;-1.00;105487;1254;1005035;-77
2023/06/06 02:14:38;;;;;;;15.30;10.50;;;;;;;-128.00;-1.00;-1.00;105515;1253;1004060;-78
2023/06/06 02:17:05;;;;;;;20.80;11.30;;;;;;;-128.00;-1.00;-1.00;105499;1253;1003834;-78
2023/06/06 02:19:31;;;;;;;12.20;9.40;;;;;;;-128.00;-1.00;-1.00;105468;1253;1004876;-78
2023/06/06 02:21:58;;;;;;;13.30;10.20;;;;;;;-128.00;-1.00;-1.00;105534;1252;1004692;-78
2023/06/06 02:24:24;;;;;;;16.10;10.20;;;;;;;-128.00;-1.00;-1.00;105494;1252;1003548;-80
2023/06/06 02:26:53;;;;;;;15.40;11.00;;;;;;;-128.00;-1.00;-1.00;105492;1252;1005086;-78
2023/06/06 02:29:20;;;;;;;21.70;10.30;;;;;;;-128.00;-1.00;-1.00;105630;1253;1003532;-78
2023/06/06 02:31:47;;;;;;;15.30;9.70;;;;;;;-128.00;-1.00;-1.00;105538;1251;1004362;-81
2023/06/06 02:34:13;;;;;;;14.40;9.60;;;;;;;-128.00;-1.00;-1.00;105448;1251;1003961;-78
2023/06/06 02:36:41;;;;;;;18.70;10.60;;;;;;;-128.00;-1.00;-1.00;105561;1251;1003883;-81
2023/06/06 02:39:08;;;;;;;14.10;9.80;;;;;;;-128.00;-1.00;-1.00;105571;1251;1003640;-80
2023/06/06 02:41:35;;;;;;;17.10;10.50;;;;;;;-128.00;-1.00;-1.00;105761;1251;1003883;-80
2023/06/06 02:44:01;;;;;;;13.10;9.90;;;;;;;-128.00;-1.00;-1.00;105760;1251;1004295;-78
2023/06/06 02:46:28;;;;;;;13.90;9.70;;;;;;;-128.00;-1.00;-1.00;105772;1251;1004557;-78
2023/06/06 02:48:54;;;;;;;13.40;9.90;;;;;;;-128.00;-1.00;-1.00;105726;1252;1004789;-80
2023/06/06 02:51:22;;;;;;;14.50;10.40;;;;;;;-128.00;-1.00;-1.00;105641;1253;1004572;-80
2023/06/06 02:53:49;;;;;;;15.60;9.30;;;;;;;-128.00;-1.00;-1.00;105482;1252;1004105;-78
2023/06/06 02:56:16;;;;;;;14.90;10.00;;;;;;;-128.00;-1.00;-1.00;105317;1254;1004603;-81
2023/06/06 02:58:43;;;;;;;15.00;10.40;;;;;;;-128.00;-1.00;-1.00;105510;1252;1004198;-78
2023/06/06 03:01:12;;;;;;;14.00;9.20;;;;;;;-128.00;-1.00;-1.00;105489;1253;1004656;-78
2023/06/06 03:03:38;;;;;;;;;;;;;;;-128.00;-1.00;-1.00;105356;1253;1057472;-78
2023/06/06 03:06:06;;;;;;;15.50;10.20;;;;;;;-128.00;-1.00;-1.00;105549;1253;1004726;-78
2023/06/06 03:08:33;;;;;;;15.40;10.30;;;;;;;-128.00;-1.00;-1.00;105470;1252;1004278;-80
2023/06/06 03:11:00;;;;;;;12.30;9.50;;;;;;;-128.00;-1.00;-1.00;105388;1253;1004891;-78
2023/06/06 03:13:26;;;;;;;13.50;9.50;;;;;;;-128.00;-1.00;-1.00;105497;1252;1004350;-78
2023/06/06 03:15:52;;;;;;;13.70;10.00;;;;;;;-128.00;-1.00;-1.00;105498;1252;1003939;-80
2023/06/06 03:18:20;;;;;;;13.90;9.30;;;;;;;-128.00;-1.00;-1.00;105500;1253;1004261;-81
2023/06/06 03:20:48;;;;;;;13.90;9.40;;;;;;;-128.00;-1.00;-1.00;105500;1253;1004864;-81
2023/06/06 03:23:14;;;;;;;17.40;10.90;;;;;;;-128.00;-1.00;-1.00;105529;1253;1005649;-80
2023/06/06 03:25:43;;;;;;;18.10;11.10;;;;;;;-128.00;-1.00;-1.00;105473;1252;1004510;-80
2023/06/06 03:28:10;;;;;;;13.00;9.60;;;;;;;-128.00;-1.00;-1.00;105579;1253;1058873;-80
2023/06/06 03:30:37;;;;;;;15.30;9.90;;;;;;;-128.00;-1.00;-1.00;105482;1251;1005131;-78
2023/06/06 03:33:06;;;;;;;15.30;9.20;;;;;;;-128.00;-1.00;-1.00;105552;1251;1004555;-78
2023/06/06 03:35:33;;;;;;;13.70;10.40;;;;;;;-128.00;-1.00;-1.00;105595;1251;1048645;-80
2023/06/06 03:38:03;;;;;;;15.10;9.70;;;;;;;-128.00;-1.00;-1.00;105761;1251;1004478;-78
2023/06/06 03:40:30;;;;;;;14.20;10.30;;;;;;;-128.00;-1.00;-1.00;105697;1251;1059113;-81
2023/06/06 03:42:56;;;;;;;14.00;8.80;;;;;;;-128.00;-1.00;-1.00;105782;1251;1005056;-78
2023/06/06 03:45:23;;;;;;;17.70;10.20;;;;;;;-128.00;-1.00;-1.00;105694;1251;1003954;-79
2023/06/06 03:47:52;;;;;;;20.60;10.90;;;;;;;-128.00;-1.00;-1.00;105685;1252;1004143;-78
2023/06/06 03:50:19;;;;;;;18.50;10.30;;;;;;;-128.00;-1.00;-1.00;105749;1251;1062190;-80
2023/06/06 03:52:45;;;;;;;19.90;9.70;;;;;;;-128.00;-1.00;-1.00;105754;1251;1003481;-80
2023/06/06 03:55:12;;;;;;;16.50;9.60;;;;;;;-128.00;-1.00;-1.00;105729;1251;1004041;-80
2023/06/06 03:57:38;;;;;;;16.40;10.30;;;;;;;-128.00;-1.00;-1.00;105675;1251;1004269;-78
2023/06/06 04:00:13;;;;;;;15.60;9.20;;;;;;;-128.00;-1.00;-1.00;105633;1251;1004648;-79
2023/06/06 04:02:40;;;;;;;14.30;9.70;;;;;;;-128.00;-1.00;-1.00;105601;1251;1062743;-80
2023/06/06 04:05:07;;;;;;;11.80;8.30;;;;;;;-128.00;-1.00;-1.00;105585;1251;1004427;-78
2023/06/06 04:07:33;;;;;;;15.00;9.50;;;;;;;-128.00;-1.00;-1.00;105559;1251;1003709;-78
2023/06/06 04:10:00;;;;;;;11.30;8.90;;;;;;;-128.00;-1.00;-1.00;105446;1251;1004811;-80
2023/06/06 04:12:26;;;;;;;17.70;12.00;;;;;;;-128.00;-1.00;-1.00;105559;1251;1004980;-80
2023/06/06 04:14:53;;;;;;;23.30;11.70;;;;;;;-128.00;-1.00;-1.00;105534;1251;1005098;-80
2023/06/06 04:17:20;;;;;;;17.40;9.60;;;;;;;-128.00;-1.00;-1.00;105622;1251;1004460;-78
2023/06/06 04:19:49;;;;;;;16.10;11.90;;;;;;;-128.00;-1.00;-1.00;105586;1251;1004470;-78
2023/06/06 04:22:17;;;;;;;17.00;9.80;;;;;;;-128.00;-1.00;-1.00;105453;1252;1046150;-78
2023/06/06 04:24:44;;;;;;;17.70;10.20;;;;;;;-128.00;-1.00;-1.00;105425;1253;1004813;-78
2023/06/06 04:27:10;;;;;;;14.30;9.60;;;;;;;-128.00;-1.00;-1.00;105423;1252;1004710;-78
2023/06/06 04:29:37;;;;;;;13.50;8.70;;;;;;;-128.00;-1.00;-1.00;105432;1253;1004495;-78
2023/06/06 04:32:04;;;;;;;17.60;9.80;;;;;;;-128.00;-1.00;-1.00;105358;1251;1004065;-78
2023/06/06 04:34:30;;;;;;;15.90;9.40;;;;;;;-128.00;-1.00;-1.00;105499;1251;1004868;-78
2023/06/06 04:37:07;;;;;;;13.10;8.90;;;;;;;-128.00;-1.00;-1.00;105572;1251;1003964;-78
2023/06/06 04:39:33;;;;;;;17.60;9.80;;;;;;;-128.00;-1.00;-1.00;105555;1251;1062190;-78
2023/06/06 04:42:04;;;;;;;12.70;9.00;;;;;;;-128.00;-1.00;-1.00;105591;1251;1004799;-80
2023/06/06 04:44:32;;;;;;;14.50;8.70;;;;;;;-128.00;-1.00;-1.00;105575;1251;1059729;-78
2023/06/06 04:47:03;;;;;;;16.20;10.60;;;;;;;-128.00;-1.00;-1.00;105562;1251;1003729;-81
2023/06/06 04:49:35;;;;;;;15.70;9.70;;;;;;;-128.00;-1.00;-1.00;105487;1253;1047614;-78
2023/06/06 04:52:05;;;;;;;17.50;9.30;;;;;;;-128.00;-1.00;-1.00;105511;1253;1062247;-83
2023/06/06 04:54:33;;;;;;;13.50;8.90;;;;;;;-128.00;-1.00;-1.00;105512;1254;1058242;-78
2023/06/06 04:57:03;;;;;;;15.10;9.70;;;;;;;-128.00;-1.00;-1.00;105497;1253;1004264;-78
2023/06/06 04:59:32;;;;;;;24.90;10.40;;;;;;;-128.00;-1.00;-1.00;105522;1252;1047627;-79
2023/06/06 05:01:59;;;;;;;18.90;10.20;;;;;;;-128.00;-1.00;-1.00;105515;1252;1048097;-78
2023/06/06 05:04:26;;;;;;;21.30;12.20;;;;;;;-128.00;-1.00;-1.00;105478;1253;1003743;-78
2023/06/06 05:06:53;;;;;;;18.50;10.50;;;;;;;-128.00;-1.00;-1.00;105462;1253;1004633;-81
2023/06/06 05:09:19;;;;;;;16.60;11.40;;;;;;;-128.00;-1.00;-1.00;105509;1252;1003952;-78
2023/06/06 05:11:46;;;;;;;19.30;10.70;;;;;;;-128.00;-1.00;-1.00;105509;1252;1004039;-80
2023/06/06 05:14:13;;;;;;;15.50;11.10;;;;;;;-128.00;-1.00;-1.00;105536;1253;1003491;-80
2023/06/06 05:16:40;;;;;;;20.10;12.90;;;;;;;-128.00;-1.00;-1.00;105501;1254;1003493;-80
2023/06/06 05:19:07;;;;;;;17.60;12.40;;;;;;;-128.00;-1.00;-1.00;105548;1252;1004719;-78
2023/06/06 05:21:34;;;;;;;18.80;13.10;;;;;;;-128.00;-1.00;-1.00;105514;1253;1004150;-78
2023/06/06 05:24:00;;;;;;;20.50;12.90;;;;;;;-128.00;-1.00;-1.00;105505;1253;1004564;-78
2023/06/06 05:26:26;;;;;;;21.00;15.50;;;;;;;-128.00;-1.00;-1.00;105585;1253;1005347;-80
2023/06/06 05:28:53;;;;;;;23.60;12.70;;;;;;;-128.00;-1.00;-1.00;105466;1253;1004741;-78
2023/06/06 05:31:20;;;;;;;19.70;12.70;;;;;;;-128.00;-1.00;-1.00;105450;1253;1004772;-80
2023/06/06 05:33:47;;;;;;;20.30;13.40;;;;;;;-128.00;-1.00;-1.00;105503;1252;1004925;-78
2023/06/06 05:36:13;;;;;;;20.00;14.00;;;;;;;-128.00;-1.00;-1.00;105479;1253;1004071;-80
2023/06/06 05:38:41;;;;;;;21.40;12.80;;;;;;;-128.00;-1.00;-1.00;105527;1254;1004098;-81
2023/06/06 05:41:07;;;;;;;22.70;12.70;;;;;;;-128.00;-1.00;-1.00;105518;1253;1003428;-80
2023/06/06 05:43:33;;;;;;;27.70;12.60;;;;;;;-128.00;-1.00;-1.00;105506;1253;1004579;-78
2023/06/06 05:46:00;;;;;;;21.70;12.70;;;;;;;-128.00;-1.00;-1.00;105482;1252;1005010;-78
2023/06/06 05:48:27;;;;;;;32.90;13.20;;;;;;;-128.00;-1.00;-1.00;105506;1251;1003872;-78
2023/06/06 05:50:54;;;;;;;59.20;13.80;;;;;;;-128.00;-1.00;-1.00;105510;1252;1003776;-81
2023/06/06 05:53:22;;;;;;;35.80;14.10;;;;;;;-128.00;-1.00;-1.00;105507;1252;1004718;-78
2023/06/06 05:55:48;;;;;;;61.10;18.40;;;;;;;-128.00;-1.00;-1.00;105516;1253;1004273;-78
2023/06/06 05:58:15;;;;;;;71.80;16.10;;;;;;;-128.00;-1.00;-1.00;105504;1253;1004876;-79
2023/06/06 06:00:42;;;;;;;56.10;16.20;;;;;;;-128.00;-1.00;-1.00;105621;1252;1004803;-80
2023/06/06 06:03:10;;;;;;;33.30;14.20;;;;;;;-128.00;-1.00;-1.00;105539;1253;1005617;-78
2023/06/06 06:05:37;;;;;;;18.30;12.40;;;;;;;-128.00;-1.00;-1.00;105360;1252;1062550;-81
2023/06/06 06:08:04;;;;;;;43.40;14.10;;;;;;;-128.00;-1.00;-1.00;105495;1251;1004777;-81
2023/06/06 06:10:32;;;;;;;116.20;20.30;;;;;;;-128.00;-1.00;-1.00;105509;1253;1003570;-78
2023/06/06 06:12:58;;;;;;;16.80;12.10;;;;;;;-128.00;-1.00;-1.00;105515;1253;1004766;-81
2023/06/06 06:15:25;;;;;;;17.90;11.60;;;;;;;-128.00;-1.00;-1.00;105623;1254;1004367;-78
2023/06/06 06:17:52;;;;;;;32.80;13.70;;;;;;;-128.00;-1.00;-1.00;105442;1252;1003418;-78
2023/06/06 06:20:19;;;;;;;21.10;11.20;;;;;;;-128.00;-1.00;-1.00;105580;1253;1006327;-81
2023/06/06 06:22:46;;;;;;;28.70;13.10;;;;;;;-128.00;-1.00;-1.00;105554;1254;1003855;-78
2023/06/06 06:25:13;;;;;;;22.00;11.50;;;;;;;-128.00;-1.00;-1.00;105416;1252;1004041;-78
2023/06/06 06:27:40;;;;;;;31.50;13.10;;;;;;;-128.00;-1.00;-1.00;105250;1253;1004417;-81
2023/06/06 06:30:06;;;;;;;21.50;10.80;;;;;;;-128.00;-1.00;-1.00;105468;1251;1004537;-78
2023/06/06 06:32:34;;;;;;;16.60;10.90;;;;;;;-128.00;-1.00;-1.00;105502;1253;1004500;-81
2023/06/06 06:35:01;;;;;;;17.90;11.70;;;;;;;-128.00;-1.00;-1.00;105515;1253;1003668;-81
2023/06/06 06:37:31;;;;;;;15.30;11.80;;;;;;;-128.00;-1.00;-1.00;105587;1253;1003371;-78
2023/06/06 06:39:58;;;;;;;17.50;11.70;;;;;;;-128.00;-1.00;-1.00;105504;1253;1046997;-81
2023/06/06 06:42:24;;;;;;;15.30;11.20;;;;;;;-128.00;-1.00;-1.00;105290;1253;1004092;-81
2023/06/06 06:44:52;;;;;;;22.90;11.80;;;;;;;-128.00;-1.00;-1.00;105428;1256;1005168;-81
2023/06/06 06:47:18;;;;;;;16.80;11.40;;;;;;;-128.00;-1.00;-1.00;105608;1254;1004902;-81
2023/06/06 06:49:45;;;;;;;17.40;12.00;;;;;;;-128.00;-1.00;-1.00;105643;1253;1004966;-79
2023/06/06 06:52:12;;;;;;;21.70;12.30;;;;;;;-128.00;-1.00;-1.00;105328;1253;1004661;-82
2023/06/06 06:54:53;;;;;;;19.30;11.30;;;;;;;-128.00;-1.00;-1.00;105351;1254;1003324;-78
2023/06/06 06:57:20;;;;;;;41.60;12.80;;;;;;;-128.00;-1.00;-1.00;105464;1254;1058128;-78
2023/06/06 06:59:48;;;;;;;17.90;13.60;;;;;;;-128.00;-1.00;-1.00;105403;1253;1004663;-78
2023/06/06 07:02:15;;;;;;;18.50;11.40;;;;;;;-128.00;-1.00;-1.00;105415;1253;1004345;-78
2023/06/06 07:04:42;;;;;;;15.00;10.80;;;;;;;-128.00;-1.00;-1.00;105474;1252;1004260;-81
2023/06/06 07:07:08;;;;;;;19.00;11.40;;;;;;;-128.00;-1.00;-1.00;105531;1251;1004281;-81
2023/06/06 07:09:34;;;;;;;21.00;11.60;;;;;;;-128.00;-1.00;-1.00;105385;1253;1005770;-81
2023/06/06 07:12:01;;;;;;;16.10;10.30;;;;;;;-128.00;-1.00;-1.00;105546;1252;1003887;-82
2023/06/06 07:14:29;;;;;;;16.80;11.30;;;;;;;-128.00;-1.00;-1.00;105468;1253;1004709;-78
2023/06/06 07:16:55;;;;;;;14.50;11.30;;;;;;;-128.00;-1.00;-1.00;105334;1252;1003741;-78
2023/06/06 07:19:22;;;;;;;18.00;10.70;;;;;;;-128.00;-1.00;-1.00;105474;1254;1003735;-81
2023/06/06 07:21:48;;;;;;;20.60;11.10;;;;;;;-128.00;-1.00;-1.00;105498;1251;1005076;-79
2023/06/06 07:24:16;;;;;;;16.60;12.10;;;;;;;-128.00;-1.00;-1.00;105470;1252;1003581;-81
2023/06/06 07:26:42;;;;;;;30.10;13.90;;;;;;;-128.00;-1.00;-1.00;105489;1253;1004040;-78
2023/06/06 07:29:09;;;;;;;20.40;13.30;;;;;;;-128.00;-1.00;-1.00;105471;1253;1004004;-81
2023/06/06 07:31:36;;;;;;;28.70;13.50;;;;;;;-128.00;-1.00;-1.00;105498;1252;1004354;-81
2023/06/06 07:34:02;;;;;;;15.50;11.50;;;;;;;-128.00;-1.00;-1.00;105282;1254;1005214;-81
2023/06/06 07:36:29;;;;;;;17.60;10.80;;;;;;;-128.00;-1.00;-1.00;105530;1252;1006298;-81
2023/06/06 07:38:57;;;;;;;19.80;10.80;;;;;;;-128.00;-1.00;-1.00;105357;1253;1004322;-81
2023/06/06 07:41:24;;;;;;;16.70;10.20;;;;;;;-128.00;-1.00;-1.00;105465;1253;1004625;-81
2023/06/06 07:43:51;;;;;;;17.00;9.90;;;;;;;-128.00;-1.00;-1.00;105532;1253;1005266;-79
2023/06/06 07:46:17;;;;;;;115.80;16.00;;;;;;;-128.00;-1.00;-1.00;105517;1251;1004605;-82
2023/06/06 07:48:45;;;;;;;92.40;13.40;;;;;;;-128.00;-1.00;-1.00;105310;1253;1004454;-79
2023/06/06 07:51:11;;;;;;;15.30;7.90;;;;;;;-128.00;-1.00;-1.00;105383;1253;1004008;-81
2023/06/06 07:53:37;;;;;;;12.70;7.00;;;;;;;-128.00;-1.00;-1.00;105478;1252;1005584;-79
2023/06/06 07:56:06;;;;;;;33.50;8.30;;;;;;;-128.00;-1.00;-1.00;105454;1253;1005951;-79
2023/06/06 07:58:52;;;;;;;25.00;8.20;;;;;;;-128.00;-1.00;-1.00;105491;1253;1004223;-81
2023/06/06 08:01:23;;;;;;;27.30;9.40;;;;;;;-128.00;-1.00;-1.00;105429;1253;1059978;-78
2023/06/06 08:03:50;;;;;;;14.90;9.00;;;;;;;-128.00;-1.00;-1.00;105471;1253;1044834;-79
2023/06/06 08:06:17;;;;;;;12.50;6.60;;;;;;;-128.00;-1.00;-1.00;105383;1252;1003653;-82
2023/06/06 08:08:48;;;;;;;11.30;6.70;;;;;;;-128.00;-1.00;-1.00;105477;1253;1004436;-82
2023/06/06 08:11:15;;;;;;;12.40;6.60;;;;;;;-128.00;-1.00;-1.00;105348;1253;1057714;-81
2023/06/06 08:13:41;;;;;;;14.50;8.40;;;;;;;-128.00;-1.00;-1.00;105519;1253;1004720;-79
2023/06/06 08:16:08;;;;;;;16.40;8.50;;;;;;;-128.00;-1.00;-1.00;105369;1253;1004523;-81
2023/06/06 08:18:35;;;;;;;16.60;8.30;;;;;;;-128.00;-1.00;-1.00;105462;1253;1004908;-82
2023/06/06 08:21:02;;;;;;;16.90;7.80;;;;;;;-128.00;-1.00;-1.00;105386;1256;1005358;-79
2023/06/06 08:23:28;;;;;;;15.00;8.00;;;;;;;-128.00;-1.00;-1.00;105501;1254;1004884;-82
2023/06/06 08:25:58;;;;;;;15.50;8.60;;;;;;;-128.00;-1.00;-1.00;105300;1254;1003789;-78
2023/06/06 08:28:24;;;;;;;15.60;7.80;;;;;;;-128.00;-1.00;-1.00;105414;1253;1045291;-82
2023/06/06 08:30:51;;;;;;;14.70;8.00;;;;;;;-128.00;-1.00;-1.00;105595;1251;1004039;-82
2023/06/06 08:33:18;;;;;;;14.30;7.70;;;;;;;-128.00;-1.00;-1.00;105480;1253;1003942;-82
2023/06/06 08:35:45;;;;;;;17.40;7.90;;;;;;;-128.00;-1.00;-1.00;105491;1251;1005000;-82
2023/06/06 08:38:12;;;;;;;14.00;8.00;;;;;;;-128.00;-1.00;-1.00;105520;1253;1005508;-82
2023/06/06 08:40:39;;;;;;;12.70;7.50;;;;;;;-128.00;-1.00;-1.00;105431;1254;1006134;-82
2023/06/06 08:43:06;;;;;;;12.00;7.10;;;;;;;-128.00;-1.00;-1.00;105484;1254;1004179;-79
2023/06/06 08:45:33;;;;;;;14.30;7.50;;;;;;;-128.00;-1.00;-1.00;105522;1253;1004327;-79
2023/06/06 08:48:02;;;;;;;12.30;8.90;;;;;;;-128.00;-1.00;-1.00;105509;1256;1004919;-83
2023/06/06 08:50:28;;;;;;;24.70;8.70;;;;;;;-128.00;-1.00;-1.00;105442;1252;1059593;-82
2023/06/06 08:52:55;;;;;;;13.40;8.50;;;;;;;-128.00;-1.00;-1.00;105492;1253;1004676;-78
2023/06/06 08:55:22;;;;;;;18.40;9.60;;;;;;;-128.00;-1.00;-1.00;105351;1251;1005086;-82
2023/06/06 08:57:48;;;;;;;15.70;9.70;;;;;;;-128.00;-1.00;-1.00;105494;1253;1004465;-81
2023/06/06 09:00:22;;;;;;;12.80;7.50;;;;;;;-128.00;-1.00;-1.00;105552;1254;1005223;-81
2023/06/06 09:02:51;;;;;;;14.20;8.60;;;;;;;-128.00;-1.00;-1.00;105485;1254;1059150;-82
2023/06/06 09:05:22;;;;;;;18.10;8.40;;;;;;;-128.00;-1.00;-1.00;105485;1253;1045285;-79
2023/06/06 09:07:49;;;;;;;21.40;10.90;;;;;;;-128.00;-1.00;-1.00;105551;1251;1046201;-79
2023/06/06 09:10:16;;;;;;;19.10;11.80;;;;;;;-128.00;-1.00;-1.00;105362;1256;1004436;-81
2023/06/06 09:12:43;;;;;;;17.50;9.30;;;;;;;-128.00;-1.00;-1.00;105458;1254;1003275;-79
2023/06/06 09:15:10;;;;;;;23.60;10.70;;;;;;;-128.00;-1.00;-1.00;105478;1252;1004504;-78
2023/06/06 09:17:37;;;;;;;23.40;11.50;;;;;;;-128.00;-1.00;-1.00;105459;1254;1003956;-78
2023/06/06 09:20:08;;;;;;;19.60;10.20;;;;;;;-128.00;-1.00;-1.00;105338;1251;1003970;-81
2023/06/06 09:22:41;;;;;;;19.60;12.00;;;;;;;-128.00;-1.00;-1.00;105413;1252;1061615;-81
2023/06/06 09:25:21;;;;;;;25.00;11.00;;;;;;;-128.00;-1.00;-1.00;105470;1256;1059013;-79
2023/06/06 09:27:52;;;;;;;11.80;8.10;;;;;;;-128.00;-1.00;-1.00;105496;1252;1058800;-82
2023/06/06 09:30:23;;;;;;;10.70;8.50;;;;;;;-128.00;-1.00;-1.00;105302;1254;1046526;-78
2023/06/06 09:32:58;;;;;;;11.40;7.50;;;;;;;-128.00;-1.00;-1.00;105438;1253;1047776;-82
2023/06/06 09:35:30;;;;;;;13.60;9.20;;;;;;;-128.00;-1.00;-1.00;105478;1254;1060827;-81
2023/06/06 09:38:03;;;;;;;9.90;6.90;;;;;;;-128.00;-1.00;-1.00;105361;1254;1057739;-81
2023/06/06 09:40:30;;;;;;;8.50;5.70;;;;;;;-128.00;-1.00;-1.00;105499;1253;1060833;-81
2023/06/06 09:42:57;;;;;;;15.10;6.80;;;;;;;-128.00;-1.00;-1.00;105478;1251;1003705;-81
2023/06/06 09:45:23;;;;;;;11.40;6.80;;;;;;;-128.00;-1.00;-1.00;105340;1253;1004306;-82
2023/06/06 09:47:50;;;;;;;15.10;7.70;;;;;;;-128.00;-1.00;-1.00;105464;1253;1004585;-82
2023/06/06 09:50:18;;;;;;;12.20;7.70;;;;;;;-128.00;-1.00;-1.00;105441;1252;1005794;-79
2023/06/06 09:52:44;;;;;;;13.30;8.30;;;;;;;-128.00;-1.00;-1.00;105351;1253;1004141;-78
2023/06/06 09:55:12;;;;;;;10.50;7.20;;;;;;;-128.00;-1.00;-1.00;105409;1256;1004615;-79
2023/06/06 09:57:39;;;;;;;9.50;6.00;;;;;;;-128.00;-1.00;-1.00;105487;1251;1004471;-82
2023/06/06 10:00:10;;;;;;;8.40;6.50;;;;;;;-128.00;-1.00;-1.00;105452;1254;1005635;-78
2023/06/06 10:02:40;;;;;;;7.80;5.30;;;;;;;-128.00;-1.00;-1.00;105634;1254;1057979;-78
2023/06/06 10:05:08;;;;;;;8.60;5.00;;;;;;;-128.00;-1.00;-1.00;105618;1254;1059078;-79
2023/06/06 10:07:35;;;;;;;7.50;5.60;;;;;;;-128.00;-1.00;-1.00;105522;1252;1003735;-82
2023/06/06 10:10:01;;;;;;;6.50;4.80;;;;;;;-128.00;-1.00;-1.00;105369;1251;1003536;-79
2023/06/06 10:12:29;;;;;;;6.40;4.60;;;;;;;-128.00;-1.00;-1.00;105479;1252;1004702;-79
2023/06/06 10:14:56;;;;;;;5.70;4.80;;;;;;;-128.00;-1.00;-1.00;105500;1252;1003764;-81
2023/06/06 10:17:23;;;;;;;6.50;4.10;;;;;;;-128.00;-1.00;-1.00;105435;1254;1004827;-79
2023/06/06 10:19:51;;;;;;;5.90;4.10;;;;;;;-128.00;-1.00;-1.00;105524;1251;1004055;-81
2023/06/06 10:22:18;;;;;;;7.30;4.10;;;;;;;-128.00;-1.00;-1.00;105489;1252;1004546;-79
2023/06/06 10:24:44;;;;;;;6.30;4.40;;;;;;;-128.00;-1.00;-1.00;105307;1254;1004308;-79
2023/06/06 10:27:16;;;;;;;7.00;4.40;;;;;;;-128.00;-1.00;-1.00;105319;1253;1003948;-81
2023/06/06 10:29:49;;;;;;;5.50;3.90;;;;;;;-128.00;-1.00;-1.00;105459;1253;1059779;-82
2023/06/06 10:32:20;;;;;;;7.50;4.50;;;;;;;-128.00;-1.00;-1.00;105321;1253;1046122;-81
2023/06/06 10:34:47;;;;;;;7.30;4.90;;;;;;;-128.00;-1.00;-1.00;105508;1254;1046953;-79
2023/06/06 10:37:15;;;;;;;9.40;5.30;;;;;;;-128.00;-1.00;-1.00;105199;1253;1004169;-78
2023/06/06 10:39:46;;;;;;;6.20;4.80;;;;;;;-128.00;-1.00;-1.00;105472;1252;1004563;-82
2023/06/06 10:42:13;;;;;;;6.50;4.60;;;;;;;-128.00;-1.00;-1.00;105463;1251;1059315;-82
2023/06/06 10:44:46;;;;;;;8.40;4.80;;;;;;;-128.00;-1.00;-1.00;105484;1253;1004599;-79
2023/06/06 10:47:22;;;;;;;8.20;4.80;;;;;;;-128.00;-1.00;-1.00;105489;1252;1047076;-82
2023/06/06 10:50:13;;;;;;;8.60;4.30;;;;;;;-128.00;-1.00;-1.00;105468;1252;1061951;-82
2023/06/06 10:53:01;;;;;;;9.60;4.90;;;;;;;-128.00;-1.00;-1.00;105502;1253;1060136;-81
2023/06/06 10:55:28;;;;;;;8.40;4.90;;;;;;;-128.00;-1.00;-1.00;105421;1253;1060793;-82
2023/06/06 10:58:13;;;;;;;6.30;4.80;;;;;;;-128.00;-1.00;-1.00;105472;1253;1004408;-82
2023/06/06 11:00:41;;;;;;;8.00;4.30;;;;;;;-128.00;-1.00;-1.00;105459;1253;1047631;-79
2023/06/06 11:03:09;;;;;;;8.40;4.70;;;;;;;-128.00;-1.00;-1.00;105461;1252;1003993;-78
2023/06/06 11:06:01;;;;;;;6.10;4.30;;;;;;;-128.00;-1.00;-1.00;105321;1254;1004580;-78
2023/06/06 11:08:53;;;;;;;7.10;5.00;;;;;;;-128.00;-1.00;-1.00;105546;1251;1058018;-82
2023/06/06 11:11:30;;;;;;;8.90;5.30;;;;;;;-128.00;-1.00;-1.00;105634;1254;1047410;-82